Nisshoumaru — JD3093 — position and weather

sailwx.info

Track history (hours):
 
Tides and Currents Weather Stations Pressure Air Temp Water Temp Dewpoint Dewpoint Depression Visibility Wind Speed Wind Dir Waves Ship Positions

Nisshoumaru

Last reported at 2015-Jul-29 21:34 UTC. Time now 2015-Jul-29 22:01 UTC.
Position N 35°37' E 139°58'.

Length 76 m; draft 4 m.

Type: Cargo ship. MMSI: 431001549.

Date/timePositionNaut miles runAvg speedWind from/ knotsBaromVisibWave heightAir tempDewpointWater temp
2015-Jul-29 21:34N 35°37' E 139°58'0 0.0
2015-Jul-29 20:33N 35°37' E 139°58'0 0.0
2015-Jul-29 19:33N 35°37' E 139°58'0 0.0
2015-Jul-29 18:34N 35°37' E 139°58'0 0.0
2015-Jul-29 17:33N 35°37' E 139°58'1 0.7
2015-Jul-29 16:34N 35°37' E 139°58'1212.5
2015-Jul-29 15:34N 35°27' E 139°49'1110.7
2015-Jul-29 14:34N 35°16' E 139°46'1211.7
2015-Jul-29 13:33N 35°05' E 139°43'240 6.3
2015-Jul-27 23:25N 34°10' E 134°59'1211.1
2015-Jul-27 22:20N 34°21' E 135°05'5 5.8
2015-Jul-27 21:32N 34°24' E 135°09'0 0.0
2015-Jul-27 20:33N 34°24' E 135°09'0 0.0
2015-Jul-27 19:28N 34°24' E 135°09'0 0.0
2015-Jul-27 18:33N 34°24' E 135°09'0 0.0
2015-Jul-27 14:33N 34°24' E 135°09'0 0.1
2015-Jul-27 13:33N 34°24' E 135°09'0 0.0
2015-Jul-27 12:33N 34°24' E 135°09'0 0.0
2015-Jul-27 11:33N 34°24' E 135°09'0 0.0
2015-Jul-27 10:33N 34°24' E 135°09'0 0.0
2015-Jul-27 09:33N 34°24' E 135°09'0 0.0
2015-Jul-27 08:32N 34°24' E 135°09'1111.0
2015-Jul-27 07:32N 34°35' E 135°05'1 0.0
2015-Jul-25 06:33N 34°36' E 135°05'1212.3
2015-Jul-25 05:33N 34°33' E 135°19'5 4.6
2015-Jul-25 04:33N 34°31' E 135°24'0 0.0
2015-Jul-25 03:33N 34°31' E 135°24'0 0.0
2015-Jul-25 02:33N 34°31' E 135°24'0 0.0
2015-Jul-25 01:33N 34°31' E 135°24'0 0.0
2015-Jul-25 00:33N 34°31' E 135°24'0 0.0
2015-Jul-24 23:33N 34°31' E 135°24'2 2.0
2015-Jul-24 22:33N 34°32' E 135°22'0 0.0
2015-Jul-24 21:32N 34°32' E 135°22'0 0.0
2015-Jul-24 20:26N 34°32' E 135°22'0 0.0
2015-Jul-24 19:32N 34°32' E 135°22'10 9.9
2015-Jul-24 18:33N 34°27' E 135°12'1513.3
2015-Jul-24 17:27N 34°16' E 134°60'  
2015-Jul-20 01:14N 34°49' E 139°41'2111.2
2015-Jul-19 23:20N 34°57' E 140°05'  
Track history (hours):
 
Tides and Currents Weather Stations Pressure Air Temp Water Temp Dewpoint Dewpoint Depression Visibility Wind Speed Wind Dir Waves Ship Positions

Nisshoumaru

Last reported at 2015-Jul-29 21:34 UTC. Time now 2015-Jul-29 22:01 UTC.
Position N 35°37' E 139°58'.

Length 76 m; draft 4 m.

Type: Cargo ship. MMSI: 431001549.

Date/timePositionNaut miles runAvg speedWind from/ knotsBaromVisibWave heightAir tempDewpointWater temp
2015-Jul-29 21:34N 35°37' E 139°58'0 0.0
2015-Jul-29 20:33N 35°37' E 139°58'0 0.0
2015-Jul-29 19:33N 35°37' E 139°58'0 0.0
2015-Jul-29 18:34N 35°37' E 139°58'0 0.0
2015-Jul-29 17:33N 35°37' E 139°58'1 0.7
2015-Jul-29 16:34N 35°37' E 139°58'1212.5
2015-Jul-29 15:34N 35°27' E 139°49'1110.7
2015-Jul-29 14:34N 35°16' E 139°46'1211.7
2015-Jul-29 13:33N 35°05' E 139°43'240 6.3
2015-Jul-27 23:25N 34°10' E 134°59'1211.1
2015-Jul-27 22:20N 34°21' E 135°05'5 5.8
2015-Jul-27 21:32N 34°24' E 135°09'0 0.0
2015-Jul-27 20:33N 34°24' E 135°09'0 0.0
2015-Jul-27 19:28N 34°24' E 135°09'0 0.0
2015-Jul-27 18:33N 34°24' E 135°09'0 0.0
2015-Jul-27 14:33N 34°24' E 135°09'0 0.1
2015-Jul-27 13:33N 34°24' E 135°09'0 0.0
2015-Jul-27 12:33N 34°24' E 135°09'0 0.0
2015-Jul-27 11:33N 34°24' E 135°09'0 0.0
2015-Jul-27 10:33N 34°24' E 135°09'0 0.0
2015-Jul-27 09:33N 34°24' E 135°09'0 0.0
2015-Jul-27 08:32N 34°24' E 135°09'1111.0
2015-Jul-27 07:32N 34°35' E 135°05'1 0.0
2015-Jul-25 06:33N 34°36' E 135°05'1212.3
2015-Jul-25 05:33N 34°33' E 135°19'5 4.6
2015-Jul-25 04:33N 34°31' E 135°24'0 0.0
2015-Jul-25 03:33N 34°31' E 135°24'0 0.0
2015-Jul-25 02:33N 34°31' E 135°24'0 0.0
2015-Jul-25 01:33N 34°31' E 135°24'0 0.0
2015-Jul-25 00:33N 34°31' E 135°24'0 0.0
2015-Jul-24 23:33N 34°31' E 135°24'2 2.0
2015-Jul-24 22:33N 34°32' E 135°22'0 0.0
2015-Jul-24 21:32N 34°32' E 135°22'0 0.0
2015-Jul-24 20:26N 34°32' E 135°22'0 0.0
2015-Jul-24 19:32N 34°32' E 135°22'10 9.9
2015-Jul-24 18:33N 34°27' E 135°12'1513.3
2015-Jul-24 17:27N 34°16' E 134°60'  
2015-Jul-20 01:14N 34°49' E 139°41'2111.2
2015-Jul-19 23:20N 34°57' E 140°05'  

Dump ship's entire track history